sensor_id;sensor_type;location;lat;lon;timestamp;P1;durP1;ratioP1;P2;durP2;ratioP2
10491;SDS011;5293;51.464;-2.566;2023-03-14T00:01:30;2.77;;;0.93;;
10491;SDS011;5293;51.464;-2.566;2023-03-14T00:03:56;3.83;;;1.30;;
10491;SDS011;5293;51.464;-2.566;2023-03-14T00:06:22;4.97;;;1.03;;
10491;SDS011;5293;51.464;-2.566;2023-03-14T00:08:48;3.40;;;1.13;;
10491;SDS011;5293;51.464;-2.566;2023-03-14T00:11:15;6.00;;;1.27;;
10491;SDS011;5293;51.464;-2.566;2023-03-14T00:13:43;2.57;;;1.17;;
10491;SDS011;5293;51.464;-2.566;2023-03-14T00:16:12;7.90;;;1.30;;
10491;SDS011;5293;51.464;-2.566;2023-03-14T00:18:39;3.93;;;1.13;;
10491;SDS011;5293;51.464;-2.566;2023-03-14T00:21:05;5.87;;;1.20;;
10491;SDS011;5293;51.464;-2.566;2023-03-14T00:23:34;6.03;;;1.77;;
10491;SDS011;5293;51.464;-2.566;2023-03-14T00:26:05;7.17;;;1.40;;
10491;SDS011;5293;51.464;-2.566;2023-03-14T00:28:33;1.87;;;1.10;;
10491;SDS011;5293;51.464;-2.566;2023-03-14T00:31:01;6.43;;;1.70;;
10491;SDS011;5293;51.464;-2.566;2023-03-14T00:33:29;4.07;;;1.47;;
10491;SDS011;5293;51.464;-2.566;2023-03-14T00:36:04;1.93;;;1.37;;
10491;SDS011;5293;51.464;-2.566;2023-03-14T00:38:34;5.27;;;1.53;;
10491;SDS011;5293;51.464;-2.566;2023-03-14T00:41:02;5.60;;;1.47;;
10491;SDS011;5293;51.464;-2.566;2023-03-14T00:43:29;4.07;;;1.40;;
10491;SDS011;5293;51.464;-2.566;2023-03-14T00:45:55;2.90;;;1.03;;
10491;SDS011;5293;51.464;-2.566;2023-03-14T00:48:22;5.80;;;1.10;;
10491;SDS011;5293;51.464;-2.566;2023-03-14T00:50:47;4.13;;;1.33;;
10491;SDS011;5293;51.464;-2.566;2023-03-14T00:53:13;3.17;;;0.90;;
10491;SDS011;5293;51.464;-2.566;2023-03-14T00:55:39;4.00;;;1.33;;
10491;SDS011;5293;51.464;-2.566;2023-03-14T00:58:07;7.17;;;1.40;;
10491;SDS011;5293;51.464;-2.566;2023-03-14T01:00:33;6.87;;;1.93;;
10491;SDS011;5293;51.464;-2.566;2023-03-14T01:02:59;7.40;;;1.40;;
10491;SDS011;5293;51.464;-2.566;2023-03-14T01:05:25;4.90;;;1.27;;
10491;SDS011;5293;51.464;-2.566;2023-03-14T01:07:50;3.90;;;1.53;;
10491;SDS011;5293;51.464;-2.566;2023-03-14T01:10:16;5.40;;;1.40;;
10491;SDS011;5293;51.464;-2.566;2023-03-14T01:12:42;7.43;;;1.40;;
10491;SDS011;5293;51.464;-2.566;2023-03-14T01:15:08;4.77;;;1.23;;
10491;SDS011;5293;51.464;-2.566;2023-03-14T01:17:34;6.93;;;1.30;;
10491;SDS011;5293;51.464;-2.566;2023-03-14T01:20:00;3.43;;;1.53;;
10491;SDS011;5293;51.464;-2.566;2023-03-14T01:22:26;5.00;;;1.60;;
10491;SDS011;5293;51.464;-2.566;2023-03-14T01:24:52;4.70;;;1.47;;
10491;SDS011;5293;51.464;-2.566;2023-03-14T01:27:17;6.23;;;1.53;;
10491;SDS011;5293;51.464;-2.566;2023-03-14T01:29:43;3.83;;;1.53;;
10491;SDS011;5293;51.464;-2.566;2023-03-14T01:32:09;8.33;;;1.33;;
10491;SDS011;5293;51.464;-2.566;2023-03-14T01:34:34;6.07;;;1.63;;
10491;SDS011;5293;51.464;-2.566;2023-03-14T01:37:00;6.40;;;1.30;;
10491;SDS011;5293;51.464;-2.566;2023-03-14T01:39:26;3.63;;;1.40;;
10491;SDS011;5293;51.464;-2.566;2023-03-14T01:41:53;8.37;;;1.60;;
10491;SDS011;5293;51.464;-2.566;2023-03-14T01:44:19;5.20;;;1.40;;
10491;SDS011;5293;51.464;-2.566;2023-03-14T01:46:45;3.37;;;1.33;;
10491;SDS011;5293;51.464;-2.566;2023-03-14T01:52:04;3.00;;;1.10;;
10491;SDS011;5293;51.464;-2.566;2023-03-14T01:54:38;5.93;;;1.30;;
10491;SDS011;5293;51.464;-2.566;2023-03-14T01:57:22;8.77;;;1.50;;
10491;SDS011;5293;51.464;-2.566;2023-03-14T01:59:57;12.20;;;2.10;;
10491;SDS011;5293;51.464;-2.566;2023-03-14T02:02:36;10.13;;;1.87;;
10491;SDS011;5293;51.464;-2.566;2023-03-14T02:05:02;4.60;;;1.20;;
10491;SDS011;5293;51.464;-2.566;2023-03-14T02:10:05;8.37;;;1.70;;
10491;SDS011;5293;51.464;-2.566;2023-03-14T02:12:31;1.20;;;1.10;;
10491;SDS011;5293;51.464;-2.566;2023-03-14T02:14:58;2.90;;;1.40;;
10491;SDS011;5293;51.464;-2.566;2023-03-14T02:17:24;3.60;;;1.23;;
10491;SDS011;5293;51.464;-2.566;2023-03-14T02:22:33;5.80;;;1.77;;
10491;SDS011;5293;51.464;-2.566;2023-03-14T02:27:24;4.63;;;1.63;;
10491;SDS011;5293;51.464;-2.566;2023-03-14T02:30:13;6.53;;;2.00;;
10491;SDS011;5293;51.464;-2.566;2023-03-14T02:32:40;4.30;;;1.70;;
10491;SDS011;5293;51.464;-2.566;2023-03-14T02:35:11;7.13;;;1.87;;
10491;SDS011;5293;51.464;-2.566;2023-03-14T02:37:46;8.27;;;2.47;;
10491;SDS011;5293;51.464;-2.566;2023-03-14T02:40:16;6.83;;;1.80;;
10491;SDS011;5293;51.464;-2.566;2023-03-14T02:42:42;6.53;;;1.67;;
10491;SDS011;5293;51.464;-2.566;2023-03-14T02:47:34;7.57;;;1.67;;
10491;SDS011;5293;51.464;-2.566;2023-03-14T02:50:02;4.77;;;1.77;;
10491;SDS011;5293;51.464;-2.566;2023-03-14T02:52:34;5.63;;;1.13;;
10491;SDS011;5293;51.464;-2.566;2023-03-14T02:54:59;7.03;;;1.50;;
10491;SDS011;5293;51.464;-2.566;2023-03-14T02:57:25;5.87;;;1.53;;
10491;SDS011;5293;51.464;-2.566;2023-03-14T02:59:51;5.83;;;1.97;;
10491;SDS011;5293;51.464;-2.566;2023-03-14T03:02:17;7.20;;;2.03;;
10491;SDS011;5293;51.464;-2.566;2023-03-14T03:04:43;6.63;;;2.10;;
10491;SDS011;5293;51.464;-2.566;2023-03-14T03:07:08;4.53;;;1.70;;
10491;SDS011;5293;51.464;-2.566;2023-03-14T03:09:35;11.50;;;2.50;;
10491;SDS011;5293;51.464;-2.566;2023-03-14T03:12:00;9.97;;;1.97;;
10491;SDS011;5293;51.464;-2.566;2023-03-14T03:14:26;6.17;;;1.90;;
10491;SDS011;5293;51.464;-2.566;2023-03-14T03:16:52;6.80;;;1.90;;
10491;SDS011;5293;51.464;-2.566;2023-03-14T03:19:17;6.37;;;1.67;;
10491;SDS011;5293;51.464;-2.566;2023-03-14T03:21:43;5.50;;;1.27;;
10491;SDS011;5293;51.464;-2.566;2023-03-14T03:24:09;6.70;;;1.73;;
10491;SDS011;5293;51.464;-2.566;2023-03-14T03:26:35;3.43;;;1.90;;
10491;SDS011;5293;51.464;-2.566;2023-03-14T03:29:01;5.50;;;1.43;;
10491;SDS011;5293;51.464;-2.566;2023-03-14T03:31:27;5.73;;;1.80;;
10491;SDS011;5293;51.464;-2.566;2023-03-14T03:33:53;6.83;;;1.47;;
10491;SDS011;5293;51.464;-2.566;2023-03-14T03:36:22;6.17;;;2.23;;
10491;SDS011;5293;51.464;-2.566;2023-03-14T03:38:49;6.97;;;2.00;;
10491;SDS011;5293;51.464;-2.566;2023-03-14T03:41:15;6.13;;;1.73;;
10491;SDS011;5293;51.464;-2.566;2023-03-14T03:43:40;5.30;;;1.40;;
10491;SDS011;5293;51.464;-2.566;2023-03-14T03:46:06;7.17;;;1.70;;
10491;SDS011;5293;51.464;-2.566;2023-03-14T03:48:32;7.47;;;1.40;;
10491;SDS011;5293;51.464;-2.566;2023-03-14T03:50:58;8.83;;;1.47;;
10491;SDS011;5293;51.464;-2.566;2023-03-14T03:53:24;6.37;;;1.37;;
10491;SDS011;5293;51.464;-2.566;2023-03-14T03:55:50;5.80;;;1.50;;
10491;SDS011;5293;51.464;-2.566;2023-03-14T03:58:15;7.83;;;2.73;;
10491;SDS011;5293;51.464;-2.566;2023-03-14T04:00:41;5.47;;;1.67;;
10491;SDS011;5293;51.464;-2.566;2023-03-14T04:03:07;9.60;;;1.47;;
10491;SDS011;5293;51.464;-2.566;2023-03-14T04:05:32;6.70;;;2.13;;
10491;SDS011;5293;51.464;-2.566;2023-03-14T04:07:59;8.10;;;1.63;;
10491;SDS011;5293;51.464;-2.566;2023-03-14T04:10:25;8.67;;;1.83;;
10491;SDS011;5293;51.464;-2.566;2023-03-14T04:12:51;8.50;;;1.83;;
10491;SDS011;5293;51.464;-2.566;2023-03-14T04:15:17;5.87;;;1.40;;
10491;SDS011;5293;51.464;-2.566;2023-03-14T04:17:43;5.17;;;1.73;;
10491;SDS011;5293;51.464;-2.566;2023-03-14T04:20:09;5.57;;;1.73;;
10491;SDS011;5293;51.464;-2.566;2023-03-14T04:22:38;6.00;;;1.40;;
10491;SDS011;5293;51.464;-2.566;2023-03-14T04:25:04;5.57;;;1.60;;
10491;SDS011;5293;51.464;-2.566;2023-03-14T04:27:31;3.27;;;1.23;;
10491;SDS011;5293;51.464;-2.566;2023-03-14T04:29:56;6.00;;;1.33;;
10491;SDS011;5293;51.464;-2.566;2023-03-14T04:32:22;7.53;;;1.63;;
10491;SDS011;5293;51.464;-2.566;2023-03-14T04:34:48;8.30;;;1.47;;
10491;SDS011;5293;51.464;-2.566;2023-03-14T04:37:13;3.70;;;1.33;;
10491;SDS011;5293;51.464;-2.566;2023-03-14T04:39:39;5.53;;;1.00;;
10491;SDS011;5293;51.464;-2.566;2023-03-14T04:42:05;7.80;;;1.60;;
10491;SDS011;5293;51.464;-2.566;2023-03-14T04:44:31;8.90;;;1.27;;
10491;SDS011;5293;51.464;-2.566;2023-03-14T04:46:56;6.53;;;1.50;;
10491;SDS011;5293;51.464;-2.566;2023-03-14T04:49:22;12.40;;;1.60;;
10491;SDS011;5293;51.464;-2.566;2023-03-14T04:51:48;7.30;;;2.40;;
10491;SDS011;5293;51.464;-2.566;2023-03-14T04:54:16;5.30;;;1.77;;
10491;SDS011;5293;51.464;-2.566;2023-03-14T04:56:42;4.70;;;1.07;;
10491;SDS011;5293;51.464;-2.566;2023-03-14T04:59:08;4.83;;;1.37;;
10491;SDS011;5293;51.464;-2.566;2023-03-14T05:01:34;6.53;;;1.23;;
10491;SDS011;5293;51.464;-2.566;2023-03-14T05:03:59;8.33;;;2.90;;
10491;SDS011;5293;51.464;-2.566;2023-03-14T05:06:25;5.87;;;1.23;;
10491;SDS011;5293;51.464;-2.566;2023-03-14T05:08:51;9.07;;;2.13;;
10491;SDS011;5293;51.464;-2.566;2023-03-14T05:11:17;7.70;;;1.80;;
10491;SDS011;5293;51.464;-2.566;2023-03-14T05:13:43;5.97;;;1.57;;
10491;SDS011;5293;51.464;-2.566;2023-03-14T05:16:10;7.97;;;1.60;;
10491;SDS011;5293;51.464;-2.566;2023-03-14T05:18:36;6.40;;;1.40;;
10491;SDS011;5293;51.464;-2.566;2023-03-14T05:21:02;10.13;;;1.70;;
10491;SDS011;5293;51.464;-2.566;2023-03-14T05:23:29;7.40;;;2.27;;
10491;SDS011;5293;51.464;-2.566;2023-03-14T05:25:55;5.27;;;1.67;;
10491;SDS011;5293;51.464;-2.566;2023-03-14T05:28:20;4.80;;;1.40;;
10491;SDS011;5293;51.464;-2.566;2023-03-14T05:30:46;8.63;;;1.50;;
10491;SDS011;5293;51.464;-2.566;2023-03-14T05:33:12;5.23;;;1.17;;
10491;SDS011;5293;51.464;-2.566;2023-03-14T05:35:38;5.77;;;1.40;;
10491;SDS011;5293;51.464;-2.566;2023-03-14T05:38:04;3.20;;;1.10;;
10491;SDS011;5293;51.464;-2.566;2023-03-14T05:40:30;7.83;;;1.63;;
10491;SDS011;5293;51.464;-2.566;2023-03-14T05:42:55;7.87;;;1.60;;
10491;SDS011;5293;51.464;-2.566;2023-03-14T05:45:21;6.23;;;1.03;;
10491;SDS011;5293;51.464;-2.566;2023-03-14T05:47:47;3.47;;;1.47;;
10491;SDS011;5293;51.464;-2.566;2023-03-14T05:50:12;3.03;;;1.10;;
10491;SDS011;5293;51.464;-2.566;2023-03-14T05:52:38;3.07;;;1.20;;
10491;SDS011;5293;51.464;-2.566;2023-03-14T05:55:04;8.93;;;1.80;;
10491;SDS011;5293;51.464;-2.566;2023-03-14T05:57:30;2.53;;;1.10;;
10491;SDS011;5293;51.464;-2.566;2023-03-14T05:59:56;7.70;;;1.20;;
10491;SDS011;5293;51.464;-2.566;2023-03-14T06:02:21;5.17;;;1.43;;
10491;SDS011;5293;51.464;-2.566;2023-03-14T06:04:47;5.37;;;1.27;;
10491;SDS011;5293;51.464;-2.566;2023-03-14T06:07:12;5.00;;;1.50;;
10491;SDS011;5293;51.464;-2.566;2023-03-14T06:09:38;5.77;;;2.03;;
10491;SDS011;5293;51.464;-2.566;2023-03-14T06:12:04;10.33;;;1.50;;
10491;SDS011;5293;51.464;-2.566;2023-03-14T06:14:30;3.60;;;1.40;;
10491;SDS011;5293;51.464;-2.566;2023-03-14T06:16:56;6.33;;;1.60;;
10491;SDS011;5293;51.464;-2.566;2023-03-14T06:19:24;4.13;;;1.30;;
10491;SDS011;5293;51.464;-2.566;2023-03-14T06:21:50;4.10;;;1.07;;
10491;SDS011;5293;51.464;-2.566;2023-03-14T06:24:16;7.27;;;1.20;;
10491;SDS011;5293;51.464;-2.566;2023-03-14T06:26:42;3.53;;;1.27;;
10491;SDS011;5293;51.464;-2.566;2023-03-14T06:29:08;2.80;;;1.30;;
10491;SDS011;5293;51.464;-2.566;2023-03-14T06:31:34;5.43;;;1.47;;
10491;SDS011;5293;51.464;-2.566;2023-03-14T06:34:00;6.90;;;1.60;;
10491;SDS011;5293;51.464;-2.566;2023-03-14T06:36:25;1.93;;;1.30;;
10491;SDS011;5293;51.464;-2.566;2023-03-14T06:38:51;3.87;;;1.73;;
10491;SDS011;5293;51.464;-2.566;2023-03-14T06:41:17;10.67;;;1.63;;
10491;SDS011;5293;51.464;-2.566;2023-03-14T06:43:43;4.73;;;1.33;;
10491;SDS011;5293;51.464;-2.566;2023-03-14T06:46:08;9.97;;;1.97;;
10491;SDS011;5293;51.464;-2.566;2023-03-14T06:48:34;6.37;;;1.37;;
10491;SDS011;5293;51.464;-2.566;2023-03-14T06:51:00;4.27;;;1.17;;
10491;SDS011;5293;51.464;-2.566;2023-03-14T06:53:25;4.50;;;1.23;;
10491;SDS011;5293;51.464;-2.566;2023-03-14T06:55:51;10.47;;;2.83;;
10491;SDS011;5293;51.464;-2.566;2023-03-14T06:58:17;5.30;;;1.33;;
10491;SDS011;5293;51.464;-2.566;2023-03-14T07:00:43;7.80;;;1.40;;
10491;SDS011;5293;51.464;-2.566;2023-03-14T07:03:10;5.53;;;1.47;;
10491;SDS011;5293;51.464;-2.566;2023-03-14T07:05:36;4.90;;;1.57;;
10491;SDS011;5293;51.464;-2.566;2023-03-14T07:08:05;3.87;;;1.50;;
10491;SDS011;5293;51.464;-2.566;2023-03-14T07:10:31;4.37;;;1.47;;
10491;SDS011;5293;51.464;-2.566;2023-03-14T07:12:57;6.60;;;1.90;;
10491;SDS011;5293;51.464;-2.566;2023-03-14T07:15:22;7.90;;;1.57;;
10491;SDS011;5293;51.464;-2.566;2023-03-14T07:17:48;4.77;;;1.53;;
10491;SDS011;5293;51.464;-2.566;2023-03-14T07:20:14;4.93;;;1.33;;
10491;SDS011;5293;51.464;-2.566;2023-03-14T07:22:40;3.07;;;1.10;;
10491;SDS011;5293;51.464;-2.566;2023-03-14T07:25:05;6.77;;;1.27;;
10491;SDS011;5293;51.464;-2.566;2023-03-14T07:27:31;5.97;;;1.30;;
10491;SDS011;5293;51.464;-2.566;2023-03-14T07:29:57;4.53;;;1.13;;
10491;SDS011;5293;51.464;-2.566;2023-03-14T07:32:23;5.03;;;1.80;;
10491;SDS011;5293;51.464;-2.566;2023-03-14T07:34:48;4.73;;;1.23;;
10491;SDS011;5293;51.464;-2.566;2023-03-14T07:37:14;3.90;;;0.90;;
10491;SDS011;5293;51.464;-2.566;2023-03-14T07:39:40;6.43;;;1.30;;
10491;SDS011;5293;51.464;-2.566;2023-03-14T07:42:05;9.00;;;1.60;;
10491;SDS011;5293;51.464;-2.566;2023-03-14T07:44:31;8.87;;;1.33;;
10491;SDS011;5293;51.464;-2.566;2023-03-14T07:46:57;8.53;;;1.97;;
10491;SDS011;5293;51.464;-2.566;2023-03-14T07:49:23;5.63;;;1.50;;
10491;SDS011;5293;51.464;-2.566;2023-03-14T07:51:48;3.80;;;1.20;;
10491;SDS011;5293;51.464;-2.566;2023-03-14T07:54:15;5.43;;;1.47;;
10491;SDS011;5293;51.464;-2.566;2023-03-14T07:56:41;7.40;;;1.97;;
10491;SDS011;5293;51.464;-2.566;2023-03-14T07:59:07;3.57;;;1.50;;
10491;SDS011;5293;51.464;-2.566;2023-03-14T08:01:32;5.60;;;1.10;;
10491;SDS011;5293;51.464;-2.566;2023-03-14T08:03:58;3.30;;;1.43;;
10491;SDS011;5293;51.464;-2.566;2023-03-14T08:06:24;1.67;;;1.17;;
10491;SDS011;5293;51.464;-2.566;2023-03-14T08:08:50;6.73;;;1.30;;
10491;SDS011;5293;51.464;-2.566;2023-03-14T08:11:16;8.30;;;1.20;;
10491;SDS011;5293;51.464;-2.566;2023-03-14T08:13:41;8.37;;;1.37;;
10491;SDS011;5293;51.464;-2.566;2023-03-14T08:16:07;4.77;;;1.53;;
10491;SDS011;5293;51.464;-2.566;2023-03-14T08:18:33;5.17;;;1.13;;
10491;SDS011;5293;51.464;-2.566;2023-03-14T08:20:59;6.30;;;1.63;;
10491;SDS011;5293;51.464;-2.566;2023-03-14T08:23:25;4.43;;;1.53;;
10491;SDS011;5293;51.464;-2.566;2023-03-14T08:25:51;2.43;;;1.13;;
10491;SDS011;5293;51.464;-2.566;2023-03-14T08:28:17;5.33;;;1.30;;
10491;SDS011;5293;51.464;-2.566;2023-03-14T08:30:43;2.77;;;1.17;;
10491;SDS011;5293;51.464;-2.566;2023-03-14T08:33:09;3.40;;;1.20;;
10491;SDS011;5293;51.464;-2.566;2023-03-14T08:35:36;5.63;;;1.20;;
10491;SDS011;5293;51.464;-2.566;2023-03-14T08:38:03;4.33;;;1.50;;
10491;SDS011;5293;51.464;-2.566;2023-03-14T08:40:28;5.73;;;1.70;;
10491;SDS011;5293;51.464;-2.566;2023-03-14T08:42:54;5.07;;;1.10;;
10491;SDS011;5293;51.464;-2.566;2023-03-14T08:45:20;6.00;;;1.30;;
10491;SDS011;5293;51.464;-2.566;2023-03-14T08:47:46;1.27;;;1.10;;
10491;SDS011;5293;51.464;-2.566;2023-03-14T08:50:12;4.10;;;1.17;;
10491;SDS011;5293;51.464;-2.566;2023-03-14T08:52:38;0.90;;;0.90;;
10491;SDS011;5293;51.464;-2.566;2023-03-14T08:55:05;1.43;;;1.20;;
10491;SDS011;5293;51.464;-2.566;2023-03-14T08:57:32;1.47;;;1.10;;
10491;SDS011;5293;51.464;-2.566;2023-03-14T08:59:58;1.10;;;1.00;;
10491;SDS011;5293;51.464;-2.566;2023-03-14T09:02:24;1.70;;;0.80;;
10491;SDS011;5293;51.464;-2.566;2023-03-14T09:04:51;1.30;;;0.70;;
10491;SDS011;5293;51.464;-2.566;2023-03-14T09:07:17;0.80;;;0.80;;
10491;SDS011;5293;51.464;-2.566;2023-03-14T09:09:44;0.90;;;0.80;;
10491;SDS011;5293;51.464;-2.566;2023-03-14T09:12:10;0.77;;;0.77;;
10491;SDS011;5293;51.464;-2.566;2023-03-14T09:14:36;0.53;;;0.53;;
10491;SDS011;5293;51.464;-2.566;2023-03-14T09:17:02;2.23;;;0.90;;
10491;SDS011;5293;51.464;-2.566;2023-03-14T09:19:28;1.20;;;0.80;;
10491;SDS011;5293;51.464;-2.566;2023-03-14T09:21:54;1.60;;;0.90;;
10491;SDS011;5293;51.464;-2.566;2023-03-14T09:24:20;0.53;;;0.53;;
10491;SDS011;5293;51.464;-2.566;2023-03-14T09:26:46;1.00;;;0.87;;
10491;SDS011;5293;51.464;-2.566;2023-03-14T09:29:11;5.30;;;1.10;;
10491;SDS011;5293;51.464;-2.566;2023-03-14T09:31:37;3.13;;;1.00;;
10491;SDS011;5293;51.464;-2.566;2023-03-14T09:34:03;0.97;;;0.97;;
10491;SDS011;5293;51.464;-2.566;2023-03-14T09:36:29;1.67;;;1.20;;
10491;SDS011;5293;51.464;-2.566;2023-03-14T09:38:55;4.20;;;1.20;;
10491;SDS011;5293;51.464;-2.566;2023-03-14T09:41:21;1.33;;;1.00;;
10491;SDS011;5293;51.464;-2.566;2023-03-14T09:43:57;1.80;;;1.20;;
10491;SDS011;5293;51.464;-2.566;2023-03-14T09:46:28;0.93;;;0.93;;
10491;SDS011;5293;51.464;-2.566;2023-03-14T09:48:56;0.73;;;0.70;;
10491;SDS011;5293;51.464;-2.566;2023-03-14T09:51:22;1.10;;;1.07;;
10491;SDS011;5293;51.464;-2.566;2023-03-14T09:53:49;1.00;;;0.93;;
10491;SDS011;5293;51.464;-2.566;2023-03-14T09:56:20;1.03;;;0.93;;
10491;SDS011;5293;51.464;-2.566;2023-03-14T09:58:53;0.80;;;0.80;;
10491;SDS011;5293;51.464;-2.566;2023-03-14T10:01:26;1.90;;;0.90;;
10491;SDS011;5293;51.464;-2.566;2023-03-14T10:03:54;1.10;;;1.00;;
10491;SDS011;5293;51.464;-2.566;2023-03-14T10:06:22;0.97;;;0.90;;
10491;SDS011;5293;51.464;-2.566;2023-03-14T10:08:50;1.43;;;1.07;;
10491;SDS011;5293;51.464;-2.566;2023-03-14T10:11:18;1.10;;;1.00;;
10491;SDS011;5293;51.464;-2.566;2023-03-14T10:14:28;0.70;;;0.70;;
10491;SDS011;5293;51.464;-2.566;2023-03-14T10:16:45;1.07;;;0.90;;
10491;SDS011;5293;51.464;-2.566;2023-03-14T10:19:14;2.67;;;0.90;;
10491;SDS011;5293;51.464;-2.566;2023-03-14T10:21:43;1.17;;;0.60;;
10491;SDS011;5293;51.464;-2.566;2023-03-14T10:24:49;0.50;;;0.50;;
10491;SDS011;5293;51.464;-2.566;2023-03-14T10:27:18;0.68;;;0.65;;
10491;SDS011;5293;51.464;-2.566;2023-03-14T10:29:55;0.57;;;0.57;;
10491;SDS011;5293;51.464;-2.566;2023-03-14T10:32:27;1.03;;;0.60;;
10491;SDS011;5293;51.464;-2.566;2023-03-14T10:35:39;0.93;;;0.57;;
10491;SDS011;5293;51.464;-2.566;2023-03-14T10:40:18;0.47;;;0.47;;
10491;SDS011;5293;51.464;-2.566;2023-03-14T10:42:45;0.47;;;0.47;;
10491;SDS011;5293;51.464;-2.566;2023-03-14T10:45:34;1.03;;;0.50;;
10491;SDS011;5293;51.464;-2.566;2023-03-14T10:48:22;0.37;;;0.37;;
10491;SDS011;5293;51.464;-2.566;2023-03-14T10:53:43;1.03;;;0.60;;
10491;SDS011;5293;51.464;-2.566;2023-03-14T10:56:33;0.60;;;0.60;;
10491;SDS011;5293;51.464;-2.566;2023-03-14T10:59:00;1.13;;;0.40;;
10491;SDS011;5293;51.464;-2.566;2023-03-14T11:07:04;1.17;;;0.50;;
10491;SDS011;5293;51.464;-2.566;2023-03-14T11:09:52;0.57;;;0.40;;
10491;SDS011;5293;51.464;-2.566;2023-03-14T11:15:19;1.70;;;0.57;;
10491;SDS011;5293;51.464;-2.566;2023-03-14T11:20:57;1.43;;;0.53;;
10491;SDS011;5293;51.464;-2.566;2023-03-14T11:31:45;3.23;;;0.60;;
10491;SDS011;5293;51.464;-2.566;2023-03-14T11:34:28;1.67;;;0.40;;
10491;SDS011;5293;51.464;-2.566;2023-03-14T11:39:39;0.30;;;0.30;;
10491;SDS011;5293;51.464;-2.566;2023-03-14T11:42:13;1.50;;;0.97;;
10491;SDS011;5293;51.464;-2.566;2023-03-14T11:44:41;3.13;;;1.17;;
10491;SDS011;5293;51.464;-2.566;2023-03-14T11:47:14;2.93;;;0.40;;
10491;SDS011;5293;51.464;-2.566;2023-03-14T11:49:50;0.40;;;0.40;;
10491;SDS011;5293;51.464;-2.566;2023-03-14T11:52:46;1.20;;;0.63;;
10491;SDS011;5293;51.464;-2.566;2023-03-14T11:58:05;0.80;;;0.63;;
10491;SDS011;5293;51.464;-2.566;2023-03-14T12:00:38;0.73;;;0.50;;
10491;SDS011;5293;51.464;-2.566;2023-03-14T12:06:25;0.70;;;0.57;;
10491;SDS011;5293;51.464;-2.566;2023-03-14T12:09:05;0.83;;;0.40;;
10491;SDS011;5293;51.464;-2.566;2023-03-14T12:11:50;1.17;;;0.60;;
10491;SDS011;5293;51.464;-2.566;2023-03-14T12:14:28;0.50;;;0.50;;
10491;SDS011;5293;51.464;-2.566;2023-03-14T12:19:38;0.50;;;0.50;;
10491;SDS011;5293;51.464;-2.566;2023-03-14T12:24:53;2.63;;;0.97;;
10491;SDS011;5293;51.464;-2.566;2023-03-14T12:27:45;0.50;;;0.40;;
10491;SDS011;5293;51.464;-2.566;2023-03-14T12:35:41;1.60;;;1.03;;
10491;SDS011;5293;51.464;-2.566;2023-03-14T12:38:15;1.70;;;0.90;;
10491;SDS011;5293;51.464;-2.566;2023-03-14T12:41:17;2.73;;;0.90;;
10491;SDS011;5293;51.464;-2.566;2023-03-14T12:43:51;3.10;;;0.77;;
10491;SDS011;5293;51.464;-2.566;2023-03-14T12:48:45;1.67;;;0.87;;
10491;SDS011;5293;51.464;-2.566;2023-03-14T12:51:54;2.10;;;0.80;;
10491;SDS011;5293;51.464;-2.566;2023-03-14T12:57:33;2.57;;;0.63;;
10491;SDS011;5293;51.464;-2.566;2023-03-14T13:00:20;1.60;;;0.90;;
10491;SDS011;5293;51.464;-2.566;2023-03-14T13:02:47;2.33;;;0.80;;
10491;SDS011;5293;51.464;-2.566;2023-03-14T13:05:16;3.20;;;0.70;;
10491;SDS011;5293;51.464;-2.566;2023-03-14T13:10:18;1.13;;;0.73;;
10491;SDS011;5293;51.464;-2.566;2023-03-14T13:15:24;1.97;;;1.07;;
10491;SDS011;5293;51.464;-2.566;2023-03-14T13:17:59;5.37;;;1.07;;
10491;SDS011;5293;51.464;-2.566;2023-03-14T13:20:35;2.50;;;1.30;;
10491;SDS011;5293;51.464;-2.566;2023-03-14T13:23:03;2.53;;;1.17;;
10491;SDS011;5293;51.464;-2.566;2023-03-14T13:25:33;1.47;;;0.80;;
10491;SDS011;5293;51.464;-2.566;2023-03-14T13:28:00;6.13;;;0.90;;
10491;SDS011;5293;51.464;-2.566;2023-03-14T13:30:27;3.77;;;0.93;;
10491;SDS011;5293;51.464;-2.566;2023-03-14T13:33:02;4.97;;;1.33;;
10491;SDS011;5293;51.464;-2.566;2023-03-14T13:35:38;2.17;;;0.90;;
10491;SDS011;5293;51.464;-2.566;2023-03-14T13:38:20;1.53;;;0.67;;
10491;SDS011;5293;51.464;-2.566;2023-03-14T13:40:51;2.63;;;1.13;;
10491;SDS011;5293;51.464;-2.566;2023-03-14T13:43:25;2.97;;;0.90;;
10491;SDS011;5293;51.464;-2.566;2023-03-14T13:46:00;4.70;;;1.53;;
10491;SDS011;5293;51.464;-2.566;2023-03-14T13:48:46;3.93;;;1.57;;
10491;SDS011;5293;51.464;-2.566;2023-03-14T13:51:16;5.43;;;1.60;;
10491;SDS011;5293;51.464;-2.566;2023-03-14T13:53:44;4.63;;;1.23;;
10491;SDS011;5293;51.464;-2.566;2023-03-14T13:56:14;7.47;;;1.10;;
10491;SDS011;5293;51.464;-2.566;2023-03-14T13:58:40;3.57;;;1.30;;
10491;SDS011;5293;51.464;-2.566;2023-03-14T14:01:11;1.97;;;1.00;;
10491;SDS011;5293;51.464;-2.566;2023-03-14T14:03:39;5.93;;;1.67;;
10491;SDS011;5293;51.464;-2.566;2023-03-14T14:06:11;2.47;;;1.17;;
10491;SDS011;5293;51.464;-2.566;2023-03-14T14:08:51;5.57;;;1.30;;
10491;SDS011;5293;51.464;-2.566;2023-03-14T14:11:22;5.83;;;1.53;;
10491;SDS011;5293;51.464;-2.566;2023-03-14T14:14:15;4.40;;;1.40;;
10491;SDS011;5293;51.464;-2.566;2023-03-14T14:16:57;6.97;;;1.77;;
10491;SDS011;5293;51.464;-2.566;2023-03-14T14:19:25;4.83;;;1.47;;
10491;SDS011;5293;51.464;-2.566;2023-03-14T14:21:54;7.13;;;1.60;;
10491;SDS011;5293;51.464;-2.566;2023-03-14T14:24:21;6.33;;;1.70;;
10491;SDS011;5293;51.464;-2.566;2023-03-14T14:26:53;7.80;;;1.60;;
10491;SDS011;5293;51.464;-2.566;2023-03-14T14:29:30;10.87;;;2.20;;
10491;SDS011;5293;51.464;-2.566;2023-03-14T14:32:01;7.90;;;1.77;;
10491;SDS011;5293;51.464;-2.566;2023-03-14T14:34:40;4.40;;;1.30;;
10491;SDS011;5293;51.464;-2.566;2023-03-14T14:37:30;6.60;;;1.50;;
10491;SDS011;5293;51.464;-2.566;2023-03-14T14:39:59;5.80;;;1.67;;
10491;SDS011;5293;51.464;-2.566;2023-03-14T14:42:40;7.10;;;1.77;;
10491;SDS011;5293;51.464;-2.566;2023-03-14T14:45:07;7.20;;;1.70;;
10491;SDS011;5293;51.464;-2.566;2023-03-14T14:47:51;4.53;;;1.93;;
10491;SDS011;5293;51.464;-2.566;2023-03-14T14:50:26;7.97;;;1.63;;
10491;SDS011;5293;51.464;-2.566;2023-03-14T14:52:56;7.30;;;1.73;;
10491;SDS011;5293;51.464;-2.566;2023-03-14T14:55:33;10.00;;;1.80;;
10491;SDS011;5293;51.464;-2.566;2023-03-14T15:01:06;8.67;;;1.93;;
10491;SDS011;5293;51.464;-2.566;2023-03-14T15:03:37;4.53;;;1.63;;
10491;SDS011;5293;51.464;-2.566;2023-03-14T15:06:03;8.10;;;2.47;;
10491;SDS011;5293;51.464;-2.566;2023-03-14T15:08:29;12.57;;;4.30;;
10491;SDS011;5293;51.464;-2.566;2023-03-14T15:10:55;5.23;;;1.80;;
10491;SDS011;5293;51.464;-2.566;2023-03-14T15:13:22;6.83;;;1.83;;
10491;SDS011;5293;51.464;-2.566;2023-03-14T15:15:49;9.03;;;1.70;;
10491;SDS011;5293;51.464;-2.566;2023-03-14T15:18:20;8.33;;;2.27;;
10491;SDS011;5293;51.464;-2.566;2023-03-14T15:20:48;4.30;;;1.53;;
10491;SDS011;5293;51.464;-2.566;2023-03-14T15:23:14;5.17;;;1.40;;
10491;SDS011;5293;51.464;-2.566;2023-03-14T15:25:42;6.23;;;1.63;;
10491;SDS011;5293;51.464;-2.566;2023-03-14T15:28:17;6.20;;;1.53;;
10491;SDS011;5293;51.464;-2.566;2023-03-14T15:30:45;6.73;;;1.53;;
10491;SDS011;5293;51.464;-2.566;2023-03-14T15:33:12;5.43;;;1.40;;
10491;SDS011;5293;51.464;-2.566;2023-03-14T15:35:38;6.67;;;2.27;;
10491;SDS011;5293;51.464;-2.566;2023-03-14T15:38:04;6.57;;;2.23;;
10491;SDS011;5293;51.464;-2.566;2023-03-14T15:40:29;6.13;;;2.13;;
10491;SDS011;5293;51.464;-2.566;2023-03-14T15:42:55;5.93;;;1.50;;
10491;SDS011;5293;51.464;-2.566;2023-03-14T15:45:21;4.93;;;1.40;;
10491;SDS011;5293;51.464;-2.566;2023-03-14T15:47:47;10.00;;;1.80;;
10491;SDS011;5293;51.464;-2.566;2023-03-14T15:50:12;8.70;;;2.13;;
10491;SDS011;5293;51.464;-2.566;2023-03-14T15:52:38;5.33;;;1.90;;
10491;SDS011;5293;51.464;-2.566;2023-03-14T15:55:04;9.10;;;1.90;;
10491;SDS011;5293;51.464;-2.566;2023-03-14T15:57:29;9.83;;;2.00;;
10491;SDS011;5293;51.464;-2.566;2023-03-14T15:59:55;6.37;;;1.83;;
10491;SDS011;5293;51.464;-2.566;2023-03-14T16:02:21;11.07;;;2.73;;
10491;SDS011;5293;51.464;-2.566;2023-03-14T16:04:46;7.80;;;2.10;;
10491;SDS011;5293;51.464;-2.566;2023-03-14T16:07:12;13.47;;;2.07;;
10491;SDS011;5293;51.464;-2.566;2023-03-14T16:09:38;7.00;;;1.77;;